Airport View

Enter AWOS ICAO identifier for current METAR.

ex. KFNL

KINW 251056Z AUTO 23012KT 10SM CLR 16/02 A2989 RMK AO2 PK WND 22033/1021 SLP057 T01610022

25 Oct 2020 11:29

Frequency: 118.875

Phone: 928-289-0134

Other Area AWOS: KTYL - KFLG - KSEZ - KPAN

TAF KINW 250534Z 2506/2606 21012KT P6SM BKN200 FM251500 21015G25KT P6SM SCT200 FM251800 23025G40KT P6SM FEW100 SCT200 FM260130 22011G17KT P6SM SCT070